createdAt,value
2022-12-04T00:01:22.201Z,-9.35
2022-12-04T00:03:53.591Z,-9.44
2022-12-04T00:09:16.768Z,-9.72
2022-12-04T00:11:43.818Z,-9.42
2022-12-04T00:14:11.126Z,-9.41
2022-12-04T00:16:38.320Z,-9.53
2022-12-04T00:19:05.537Z,-9.50
2022-12-04T00:21:32.643Z,-9.44
2022-12-04T00:23:59.569Z,-9.40
2022-12-04T00:26:28.507Z,-9.43
2022-12-04T00:28:56.198Z,-9.64
2022-12-04T00:31:26.193Z,-9.45
2022-12-04T00:33:53.538Z,-9.66
2022-12-04T00:36:25.913Z,-9.64
2022-12-04T00:38:53.498Z,-9.46
2022-12-04T00:41:23.399Z,-9.44
2022-12-04T00:43:50.888Z,-9.63
2022-12-04T00:46:18.689Z,-9.48
2022-12-04T00:48:46.943Z,-9.49
2022-12-04T00:51:22.068Z,-9.55
2022-12-04T00:53:49.710Z,-9.71
2022-12-04T00:56:22.859Z,-9.61
2022-12-04T00:58:56.256Z,-9.72
2022-12-04T01:01:25.534Z,-9.71
2022-12-04T01:03:53.916Z,-9.80
2022-12-04T01:06:27.231Z,-9.61
2022-12-04T01:08:56.243Z,-9.88
2022-12-04T01:11:25.124Z,-9.65
2022-12-04T01:13:53.040Z,-9.64
2022-12-04T01:16:27.774Z,-9.66
2022-12-04T01:18:54.981Z,-9.78
2022-12-04T01:21:21.968Z,-9.58
2022-12-04T01:23:49.331Z,-9.64
2022-12-04T01:26:16.442Z,-9.64
2022-12-04T01:28:43.458Z,-9.63
2022-12-04T01:31:13.473Z,-9.69
2022-12-04T01:33:41.817Z,-9.68
2022-12-04T01:36:12.227Z,-9.85
2022-12-04T01:38:40.212Z,-9.83
2022-12-04T01:41:09.768Z,-9.80
2022-12-04T01:43:38.908Z,-10.00
2022-12-04T01:46:06.179Z,-10.12
2022-12-04T01:48:39.530Z,-9.99
2022-12-04T01:51:23.440Z,-9.86
2022-12-04T01:53:54.887Z,-10.03
2022-12-04T01:56:30.865Z,-10.06
2022-12-04T01:59:01.800Z,-10.14
2022-12-04T02:01:35.339Z,-10.02
2022-12-04T02:04:02.920Z,-10.15
2022-12-04T02:06:30.014Z,-10.18
2022-12-04T02:08:56.899Z,-10.00
2022-12-04T02:11:30.357Z,-10.09
2022-12-04T02:14:25.030Z,-10.17
2022-12-04T02:17:13.424Z,-10.05
2022-12-04T02:20:12.747Z,-10.33
2022-12-04T02:23:07.464Z,-10.19
2022-12-04T02:25:43.302Z,-10.17
2022-12-04T02:28:15.768Z,-10.18
2022-12-04T02:30:44.413Z,-10.43
2022-12-04T02:33:22.331Z,-10.37
2022-12-04T02:36:13.951Z,-10.26
2022-12-04T02:38:45.424Z,-10.40
2022-12-04T02:41:42.603Z,-10.29
2022-12-04T02:44:20.614Z,-10.28
2022-12-04T02:46:53.004Z,-10.31
2022-12-04T02:49:27.314Z,-10.26
2022-12-04T02:51:56.985Z,-10.48
2022-12-04T02:54:37.579Z,-10.42
2022-12-04T02:57:07.754Z,-10.56
2022-12-04T02:59:47.323Z,-10.51
2022-12-04T03:02:21.195Z,-10.56
2022-12-04T03:04:52.409Z,-10.38
2022-12-04T03:07:37.699Z,-10.42
2022-12-04T03:10:12.188Z,-10.50
2022-12-04T03:12:50.788Z,-10.38
2022-12-04T03:15:29.709Z,-10.43
2022-12-04T03:18:03.681Z,-10.47
2022-12-04T03:20:35.329Z,-10.55
2022-12-04T03:23:13.045Z,-10.67
2022-12-04T03:26:02.692Z,-10.44
2022-12-04T03:28:39.067Z,-10.69
2022-12-04T03:31:09.966Z,-10.62
2022-12-04T03:33:47.903Z,-10.51
2022-12-04T03:36:31.666Z,-10.59
2022-12-04T03:39:33.991Z,-10.50
2022-12-04T03:42:07.401Z,-10.58
2022-12-04T03:44:46.335Z,-10.60
2022-12-04T03:47:29.520Z,-10.72
2022-12-04T03:50:02.913Z,-10.64
2022-12-04T03:52:41.998Z,-10.54
2022-12-04T03:55:19.969Z,-10.66
2022-12-04T03:57:49.472Z,-10.63
2022-12-04T04:00:43.422Z,-10.55
2022-12-04T04:03:21.812Z,-10.47
2022-12-04T04:05:54.601Z,-10.51
2022-12-04T04:08:27.682Z,-10.54
2022-12-04T04:11:07.931Z,-10.66
2022-12-04T04:13:59.223Z,-10.59
2022-12-04T04:16:47.521Z,-10.55
2022-12-04T04:19:37.265Z,-10.64
2022-12-04T04:22:27.007Z,-10.90
2022-12-04T04:24:59.784Z,-10.62
2022-12-04T04:27:26.835Z,-10.57
2022-12-04T04:29:54.246Z,-10.60
2022-12-04T04:32:50.881Z,-10.61
2022-12-04T04:35:20.995Z,-10.62
2022-12-04T04:38:00.205Z,-10.62
2022-12-04T04:40:36.539Z,-10.61
2022-12-04T04:43:36.094Z,-10.68
2022-12-04T04:46:08.947Z,-10.56
2022-12-04T04:48:44.057Z,-10.68
2022-12-04T04:51:11.710Z,-10.72
2022-12-04T04:53:54.249Z,-10.78
2022-12-04T04:56:22.134Z,-10.63
2022-12-04T04:58:49.396Z,-10.55
2022-12-04T05:01:19.334Z,-10.56
2022-12-04T05:03:47.119Z,-10.56
2022-12-04T05:06:14.878Z,-10.63
2022-12-04T05:08:42.051Z,-10.56
2022-12-04T05:11:13.197Z,-10.74
2022-12-04T05:13:40.276Z,-10.61
2022-12-04T05:16:09.252Z,-10.54
2022-12-04T05:18:36.800Z,-10.55
2022-12-04T05:21:16.240Z,-10.62
2022-12-04T05:23:43.711Z,-10.65
2022-12-04T05:26:19.305Z,-10.69
2022-12-04T05:28:54.078Z,-10.74
2022-12-04T05:31:21.063Z,-10.58
2022-12-04T05:33:48.152Z,-10.63
2022-12-04T05:36:14.971Z,-10.57
2022-12-04T05:38:42.076Z,-10.77
2022-12-04T05:41:09.497Z,-10.58
2022-12-04T05:43:37.444Z,-10.73
2022-12-04T05:46:07.425Z,-10.59
2022-12-04T05:48:35.721Z,-10.88
2022-12-04T05:51:10.555Z,-10.66
2022-12-04T05:53:38.452Z,-10.59
2022-12-04T05:56:07.490Z,-10.64
2022-12-04T05:58:38.461Z,-10.62
2022-12-04T06:01:13.907Z,-10.66
2022-12-04T06:03:41.203Z,-10.70
2022-12-04T06:06:21.425Z,-10.62
2022-12-04T06:08:56.254Z,-10.60
2022-12-04T06:11:32.798Z,-10.55
2022-12-04T06:14:01.725Z,-10.53
2022-12-04T06:16:39.206Z,-10.70
2022-12-04T06:19:09.132Z,-10.59
2022-12-04T06:21:38.505Z,-10.49
2022-12-04T06:24:06.419Z,-10.56
2022-12-04T06:27:18.775Z,-10.56
2022-12-04T06:29:34.064Z,-10.44
2022-12-04T06:32:01.080Z,-10.45
2022-12-04T06:34:28.284Z,-10.62
2022-12-04T06:36:55.120Z,-10.48
2022-12-04T06:39:22.184Z,-10.54
2022-12-04T06:41:49.015Z,-10.40
2022-12-04T06:44:16.770Z,-10.37
2022-12-04T06:46:47.145Z,-10.48
2022-12-04T06:49:14.678Z,-10.54
2022-12-04T06:51:41.879Z,-10.46
2022-12-04T06:54:10.247Z,-10.46
2022-12-04T06:56:37.568Z,-10.46
2022-12-04T06:59:05.800Z,-10.42
2022-12-04T07:01:35.203Z,-10.61
2022-12-04T07:04:04.605Z,-10.51
2022-12-04T07:06:37.000Z,-10.38
2022-12-04T07:09:06.253Z,-10.54
2022-12-04T07:11:34.461Z,-10.33
2022-12-04T07:14:03.994Z,-10.38
2022-12-04T07:16:36.684Z,-10.34
2022-12-04T07:19:07.664Z,-10.20
2022-12-04T07:21:34.947Z,-10.20
2022-12-04T07:24:02.157Z,-10.19
2022-12-04T07:26:30.765Z,-10.27
2022-12-04T07:28:59.185Z,-10.17
2022-12-04T07:31:28.608Z,-10.43
2022-12-04T07:33:56.371Z,-10.19
2022-12-04T07:36:24.733Z,-10.02
2022-12-04T07:38:52.321Z,-10.10
2022-12-04T07:41:19.988Z,-9.98
2022-12-04T07:43:47.521Z,-10.05
2022-12-04T07:46:17.207Z,-9.87
2022-12-04T07:48:44.779Z,-9.92
2022-12-04T07:51:14.393Z,-9.89
2022-12-04T07:53:42.112Z,-9.80
2022-12-04T07:56:10.873Z,-9.79
2022-12-04T07:58:38.667Z,-9.70
2022-12-04T08:01:20.809Z,-9.71
2022-12-04T08:03:49.795Z,-9.76
2022-12-04T08:06:19.227Z,-9.58
2022-12-04T08:08:47.232Z,-9.58
2022-12-04T08:11:17.759Z,-9.55
2022-12-04T08:13:45.623Z,-9.67
2022-12-04T08:16:14.074Z,-9.46
2022-12-04T08:18:46.798Z,-9.42
2022-12-04T08:21:20.866Z,-9.39
2022-12-04T08:23:50.881Z,-9.30
2022-12-04T08:26:19.635Z,-9.38
2022-12-04T08:28:47.170Z,-9.27
2022-12-04T08:31:20.436Z,-9.29
2022-12-04T08:33:49.239Z,-9.16
2022-12-04T08:36:19.603Z,-9.18
2022-12-04T08:38:48.607Z,-9.05
2022-12-04T08:41:18.046Z,-9.11
2022-12-04T08:43:45.622Z,-8.98
2022-12-04T08:46:16.427Z,-9.04
2022-12-04T08:48:44.494Z,-8.96
2022-12-04T08:51:32.724Z,-8.68
2022-12-04T08:54:01.312Z,-8.69
2022-12-04T08:56:29.941Z,-8.84
2022-12-04T08:58:57.600Z,-8.83
2022-12-04T09:01:25.903Z,-8.69
2022-12-04T09:03:53.921Z,-8.83
2022-12-04T09:06:21.818Z,-8.55
2022-12-04T09:08:52.378Z,-8.49
2022-12-04T09:11:21.941Z,-8.54
2022-12-04T09:13:49.092Z,-8.72
2022-12-04T09:16:20.125Z,-8.63
2022-12-04T09:18:47.987Z,-8.38
2022-12-04T09:21:17.740Z,-8.38
2022-12-04T09:23:45.516Z,-8.34
2022-12-04T09:26:19.148Z,-8.14
2022-12-04T09:28:46.936Z,-8.24
2022-12-04T09:31:14.206Z,-8.24
2022-12-04T09:33:41.245Z,-8.12
2022-12-04T09:36:08.402Z,-8.13
2022-12-04T09:38:35.549Z,-8.07
2022-12-04T09:41:14.965Z,-8.06
2022-12-04T09:44:04.459Z,-7.95
2022-12-04T09:46:39.426Z,-8.02
2022-12-04T09:49:12.893Z,-8.09
2022-12-04T09:51:42.091Z,-7.93
2022-12-04T09:54:21.872Z,-8.14
2022-12-04T09:56:56.114Z,-7.96
2022-12-04T09:59:29.294Z,-8.05
2022-12-04T10:02:13.474Z,-7.96
2022-12-04T10:04:40.602Z,-7.95
2022-12-04T10:07:13.672Z,-7.88
2022-12-04T10:09:59.645Z,-7.86
2022-12-04T10:13:02.054Z,-7.73
2022-12-04T10:15:29.075Z,-7.78
2022-12-04T10:18:02.670Z,-7.78
2022-12-04T10:20:58.525Z,-7.84
2022-12-04T10:23:49.220Z,-7.84
2022-12-04T10:26:19.387Z,-7.79
2022-12-04T10:28:59.512Z,-7.72
2022-12-04T10:31:28.117Z,-7.77
2022-12-04T10:33:57.788Z,-7.73
2022-12-04T10:36:32.958Z,-7.93
2022-12-04T10:39:11.193Z,-7.72
2022-12-04T10:41:45.530Z,-7.74
2022-12-04T10:44:18.055Z,-7.70
2022-12-04T10:46:46.659Z,-7.89
2022-12-04T10:49:17.753Z,-7.76
2022-12-04T10:51:47.440Z,-7.68
2022-12-04T10:54:40.673Z,-7.75
2022-12-04T10:57:11.408Z,-7.65
2022-12-04T10:59:49.512Z,-7.69
2022-12-04T11:02:26.410Z,-7.65
2022-12-04T11:05:03.249Z,-7.62
2022-12-04T11:07:41.983Z,-7.72
2022-12-04T11:10:38.955Z,-7.61
2022-12-04T11:13:17.510Z,-7.60
2022-12-04T11:15:59.182Z,-7.58
2022-12-04T11:18:32.698Z,-7.66
2022-12-04T11:21:01.085Z,-7.69
2022-12-04T11:23:41.438Z,-7.63
2022-12-04T11:26:12.417Z,-7.64
2022-12-04T11:28:44.955Z,-7.65
2022-12-04T11:31:20.647Z,-7.62
2022-12-04T11:33:54.736Z,-7.78
2022-12-04T11:36:23.735Z,-7.62
2022-12-04T11:38:53.693Z,-7.82
2022-12-04T11:41:28.185Z,-7.69
2022-12-04T11:43:59.890Z,-7.80
2022-12-04T11:46:34.358Z,-7.91
2022-12-04T11:49:03.504Z,-7.75
2022-12-04T11:51:55.862Z,-7.68
2022-12-04T11:54:37.113Z,-7.87
2022-12-04T11:57:26.281Z,-7.74
2022-12-04T12:00:15.851Z,-7.73
2022-12-04T12:03:10.473Z,-7.75
2022-12-04T12:05:56.515Z,-7.72
2022-12-04T12:08:43.650Z,-7.71
2022-12-04T12:11:30.054Z,-7.77
2022-12-04T12:14:25.775Z,-7.73
2022-12-04T12:17:15.024Z,-7.73
2022-12-04T12:19:51.460Z,-7.81
2022-12-04T12:22:32.801Z,-7.95
2022-12-04T12:25:38.036Z,-7.82
2022-12-04T12:28:11.272Z,-7.92
2022-12-04T12:30:51.453Z,-7.86
2022-12-04T12:33:34.895Z,-7.99
2022-12-04T12:36:12.777Z,-8.04
2022-12-04T12:38:43.292Z,-7.93
2022-12-04T12:41:17.410Z,-8.05
2022-12-04T12:43:56.279Z,-7.97
2022-12-04T12:46:37.571Z,-7.96
2022-12-04T12:49:13.934Z,-8.28
2022-12-04T12:52:19.584Z,-8.14
2022-12-04T12:54:55.936Z,-8.18
2022-12-04T12:58:04.931Z,-8.25
2022-12-04T13:00:39.300Z,-8.36
2022-12-04T13:03:27.274Z,-8.41
2022-12-04T13:06:00.136Z,-8.43
2022-12-04T13:08:59.599Z,-8.51
2022-12-04T15:17:17.805Z,-9.42
2022-12-04T15:19:48.955Z,-9.42
2022-12-04T15:22:27.611Z,-9.37
2022-12-04T15:24:56.100Z,-9.45
2022-12-04T15:27:31.951Z,-9.64
2022-12-04T15:30:04.627Z,-9.49
2022-12-04T15:32:32.880Z,-9.63
2022-12-04T15:35:09.370Z,-9.47
2022-12-04T15:37:37.222Z,-9.58
2022-12-04T15:40:12.105Z,-9.74
2022-12-04T15:43:20.096Z,-9.68
2022-12-04T15:45:47.971Z,-9.69
2022-12-04T15:48:30.435Z,-9.86
2022-12-04T15:51:05.716Z,-9.54
2022-12-04T15:53:37.684Z,-9.57
2022-12-04T15:56:09.808Z,-9.74
2022-12-04T15:58:40.880Z,-9.79
2022-12-04T16:01:11.900Z,-9.64
2022-12-04T16:03:52.073Z,-9.74
2022-12-04T16:06:24.388Z,-9.67
2022-12-04T16:09:20.303Z,-9.66
2022-12-04T16:11:57.062Z,-9.70
2022-12-04T16:14:27.698Z,-9.67
2022-12-04T16:17:05.894Z,-9.87
2022-12-04T16:19:36.935Z,-9.58
2022-12-04T16:22:20.774Z,-9.64
2022-12-04T16:24:48.589Z,-9.53
2022-12-04T16:27:20.390Z,-9.82
2022-12-04T16:29:47.956Z,-9.96
2022-12-04T16:32:18.220Z,-9.81
2022-12-04T16:34:49.337Z,-9.76
2022-12-04T16:37:21.305Z,-9.72
2022-12-04T16:39:49.481Z,-9.64
2022-12-04T16:42:23.618Z,-9.63
2022-12-04T16:44:51.675Z,-9.71
2022-12-04T16:47:19.157Z,-9.78
2022-12-04T16:49:50.262Z,-9.82
2022-12-04T16:52:18.364Z,-9.98
2022-12-04T16:54:45.853Z,-9.78
2022-12-04T16:57:13.452Z,-9.89
2022-12-04T16:59:40.893Z,-10.01
2022-12-04T17:02:20.487Z,-9.85
2022-12-04T17:04:54.194Z,-9.80
2022-12-04T17:07:27.357Z,-9.92
2022-12-04T17:10:00.472Z,-10.02
2022-12-04T17:12:34.005Z,-9.94
2022-12-04T17:15:01.102Z,-10.05
2022-12-04T17:17:31.218Z,-9.96
2022-12-04T17:19:58.666Z,-9.78
2022-12-04T17:22:30.928Z,-9.92
2022-12-04T17:24:59.179Z,-9.89
2022-12-04T17:27:27.972Z,-10.11
2022-12-04T17:30:00.177Z,-9.96
2022-12-04T17:32:34.989Z,-9.99
2022-12-04T17:35:03.201Z,-10.02
2022-12-04T17:37:35.618Z,-10.12
2022-12-04T17:40:03.018Z,-10.26
2022-12-04T17:42:30.649Z,-10.13
2022-12-04T17:44:58.076Z,-10.13
2022-12-04T17:47:25.641Z,-10.10
2022-12-04T17:49:53.139Z,-10.27
2022-12-04T17:52:22.625Z,-10.29
2022-12-04T17:54:51.619Z,-10.33
2022-12-04T17:57:19.854Z,-10.32
2022-12-04T17:59:47.181Z,-10.46
2022-12-04T18:02:15.380Z,-10.47
2022-12-04T18:04:42.853Z,-10.30
2022-12-04T18:07:10.162Z,-10.33
2022-12-04T18:09:37.901Z,-10.33
2022-12-04T18:12:05.574Z,-10.59
2022-12-04T18:14:34.483Z,-10.44
2022-12-04T18:17:03.072Z,-10.54
2022-12-04T18:19:30.960Z,-10.52
2022-12-04T18:21:58.901Z,-10.56
2022-12-04T18:24:26.697Z,-10.51
2022-12-04T18:26:54.112Z,-10.42
2022-12-04T18:29:25.508Z,-10.51
2022-12-04T18:31:54.062Z,-10.59
2022-12-04T18:34:22.109Z,-10.63
2022-12-04T18:36:49.912Z,-10.51
2022-12-04T18:39:22.950Z,-10.80
2022-12-04T18:41:50.815Z,-10.53
2022-12-04T18:44:18.487Z,-10.60
2022-12-04T18:46:45.829Z,-10.65
2022-12-04T18:49:13.024Z,-10.69
2022-12-04T18:51:49.552Z,-10.63
2022-12-04T18:54:23.057Z,-10.81
2022-12-04T18:56:51.005Z,-10.66
2022-12-04T18:59:20.828Z,-10.77
2022-12-04T19:01:50.389Z,-10.67
2022-12-04T19:04:21.590Z,-10.77
2022-12-04T19:06:53.365Z,-10.68
2022-12-04T19:09:40.712Z,-10.73
2022-12-04T19:12:08.424Z,-10.67
2022-12-04T19:14:35.851Z,-10.91
2022-12-04T19:17:03.245Z,-10.81
2022-12-04T19:19:31.918Z,-10.74
2022-12-04T19:22:01.243Z,-10.77
2022-12-04T19:24:28.448Z,-10.85
2022-12-04T19:26:55.719Z,-10.98
2022-12-04T19:29:23.040Z,-10.89
2022-12-04T19:31:52.487Z,-10.93
2022-12-04T19:34:23.422Z,-10.90
2022-12-04T19:36:51.504Z,-11.05
2022-12-04T19:39:18.805Z,-10.93
2022-12-04T19:41:47.556Z,-10.86
2022-12-04T19:44:46.782Z,-11.09
2022-12-04T19:47:02.275Z,-11.04
2022-12-04T19:49:29.613Z,-11.18
2022-12-04T19:51:56.882Z,-11.23
2022-12-04T19:54:24.757Z,-11.05
2022-12-04T19:56:52.726Z,-11.17
2022-12-04T19:59:20.635Z,-11.07
2022-12-04T20:01:48.249Z,-11.31
2022-12-04T20:04:15.865Z,-11.10
2022-12-04T20:06:45.057Z,-11.07
2022-12-04T20:09:18.046Z,-11.10
2022-12-04T20:11:45.143Z,-11.34
2022-12-04T20:14:12.397Z,-11.13
2022-12-04T20:16:40.124Z,-11.17
2022-12-04T20:19:11.684Z,-11.24
2022-12-04T20:21:39.085Z,-11.14
2022-12-04T20:24:07.047Z,-11.18
2022-12-04T20:26:38.392Z,-11.22
2022-12-04T20:29:07.620Z,-11.23
2022-12-04T20:31:37.392Z,-11.21
2022-12-04T20:34:11.063Z,-11.13
2022-12-04T20:36:41.453Z,-11.19
2022-12-04T20:39:09.890Z,-11.15
2022-12-04T20:41:38.294Z,-11.33
2022-12-04T20:44:07.711Z,-11.16
2022-12-04T20:46:39.659Z,-11.28
2022-12-04T20:49:13.401Z,-11.33
2022-12-04T20:51:44.349Z,-11.36
2022-12-04T20:54:15.315Z,-11.41
2022-12-04T20:56:42.316Z,-11.32
2022-12-04T20:59:13.309Z,-11.45
2022-12-04T21:01:41.293Z,-11.49
2022-12-04T21:04:08.548Z,-11.37
2022-12-04T21:06:39.092Z,-11.52
2022-12-04T21:09:12.992Z,-11.36
2022-12-04T21:11:45.866Z,-11.44
2022-12-04T21:14:37.520Z,-11.44
2022-12-04T21:17:06.930Z,-11.45
2022-12-04T21:19:34.198Z,-11.42
2022-12-04T21:22:01.401Z,-11.37
2022-12-04T21:24:30.426Z,-11.41
2022-12-04T21:26:57.490Z,-11.45
2022-12-04T21:29:24.353Z,-11.34
2022-12-04T21:31:51.522Z,-11.28
2022-12-04T21:34:18.959Z,-11.34
2022-12-04T21:36:48.509Z,-11.38
2022-12-04T21:39:15.595Z,-11.34
2022-12-04T21:42:01.701Z,-11.54
2022-12-04T21:44:28.906Z,-11.58
2022-12-04T21:46:55.944Z,-11.48
2022-12-04T21:49:23.234Z,-11.64
2022-12-04T21:51:58.669Z,-11.55
2022-12-04T21:54:28.963Z,-11.49
2022-12-04T21:56:57.231Z,-11.60
2022-12-04T21:59:25.639Z,-11.52
2022-12-04T22:01:54.204Z,-11.53
2022-12-04T22:04:22.021Z,-11.58
2022-12-04T22:06:49.477Z,-11.53
2022-12-04T22:09:17.194Z,-11.54
2022-12-04T22:11:44.787Z,-11.53
2022-12-04T22:14:12.312Z,-11.58
2022-12-04T22:16:42.787Z,-11.61
2022-12-04T22:19:12.162Z,-11.59
2022-12-04T22:21:40.327Z,-11.58
2022-12-04T22:24:27.333Z,-11.55
2022-12-04T22:26:54.249Z,-11.52
2022-12-04T22:32:08.451Z,-11.64
2022-12-04T22:34:35.424Z,-11.51
2022-12-04T22:37:02.365Z,-11.49
2022-12-04T22:39:29.610Z,-11.42
2022-12-04T22:41:56.501Z,-11.46
2022-12-04T22:44:23.509Z,-11.50
2022-12-04T22:46:50.583Z,-11.45
2022-12-04T22:49:17.595Z,-11.59
2022-12-04T22:51:44.811Z,-11.55
2022-12-04T22:54:13.180Z,-11.53
2022-12-04T22:56:40.315Z,-11.48
2022-12-04T22:59:07.259Z,-11.57
2022-12-04T23:01:34.973Z,-11.50
2022-12-04T23:04:03.696Z,-11.61
2022-12-04T23:06:33.241Z,-11.57
2022-12-04T23:09:04.917Z,-11.58
2022-12-04T23:11:32.147Z,-11.49
2022-12-04T23:14:01.390Z,-11.67
2022-12-04T23:16:30.787Z,-11.57
2022-12-04T23:18:57.892Z,-11.58
2022-12-04T23:21:24.824Z,-11.54
2022-12-04T23:23:53.351Z,-11.55
2022-12-04T23:26:23.121Z,-11.52
2022-12-04T23:28:50.165Z,-11.57
2022-12-04T23:31:17.466Z,-11.51
2022-12-04T23:33:44.674Z,-11.64
2022-12-04T23:36:13.545Z,-11.55
2022-12-04T23:38:42.092Z,-11.52
2022-12-04T23:41:13.360Z,-11.47
2022-12-04T23:43:40.961Z,-11.57
2022-12-04T23:46:11.484Z,-11.53
2022-12-04T23:48:43.460Z,-11.55
2022-12-04T23:51:12.752Z,-11.53
2022-12-04T23:53:40.477Z,-11.72
2022-12-04T23:56:16.537Z,-11.69
2022-12-04T23:58:45.691Z,-11.64
